ESNK/KRF METAR and TAF weather

Enter ICAO airport designator
Station Type Date Time Source
ESNK METAR 2020/09/20 15:20 UTC NOAA

ESNK 201520Z AUTO 27006KT 240V300 9999 OVC048/// 13/08 Q1011


Station Type Date Time Source
ESNK Decoded METAR 2020/09/20 15:20 UTC NOAA

Kramfors Flygplats, Sweden (ESNK) 63-03N 017-46E 19M
Sep 20, 2020 - 11:20 AM EDT / 2020.09.20 1520 UTC
Wind: from the W (270 degrees) at 7 MPH (6 KT) (direction variable):0
Visibility: greater than 7 mile(s):0
Sky conditions: overcast
Temperature: 55 F (13 C)
Dew Point: 46 F (8 C)
Relative Humidity: 71%
Pressure (altimeter): 29.85 in. Hg (1011 hPa)
ob: ESNK 201520Z AUTO 27006KT 240V300 9999 OVC048/// 13/08 Q1011
cycle: 15

Station Type Date Time Source
ESNK TAF 2017/12/15 06:00 UTC NOAA

TAF
AMD ESNK 150654Z 1506/1521 35005KT 6000 -SN BKN016
TEMPO 1506/1521 2000 SN SG VV009

Example: see airport list